createdAt,value
2019-01-30T00:01:22.686Z,100.00
2019-01-30T00:03:50.383Z,100.00
2019-01-30T00:06:18.243Z,100.00
2019-01-30T00:08:46.123Z,100.00
2019-01-30T00:11:13.829Z,100.00
2019-01-30T00:13:41.339Z,100.00
2019-01-30T00:16:08.907Z,100.00
2019-01-30T00:18:36.814Z,100.00
2019-01-30T00:21:04.504Z,100.00
2019-01-30T00:23:32.135Z,100.00
2019-01-30T00:25:59.791Z,100.00
2019-01-30T00:28:27.657Z,100.00
2019-01-30T00:30:55.220Z,100.00
2019-01-30T00:33:23.028Z,100.00
2019-01-30T00:35:50.682Z,100.00
2019-01-30T00:38:18.295Z,100.00
2019-01-30T00:40:45.894Z,100.00
2019-01-30T00:43:13.562Z,100.00
2019-01-30T00:45:41.183Z,100.00
2019-01-30T00:48:08.845Z,100.00
2019-01-30T00:50:38.388Z,100.00
2019-01-30T00:53:05.883Z,100.00
2019-01-30T00:55:33.532Z,100.00
2019-01-30T00:58:01.114Z,100.00
2019-01-30T01:00:28.835Z,100.00
2019-01-30T01:02:56.664Z,100.00
2019-01-30T01:05:24.428Z,100.00
2019-01-30T01:07:52.072Z,100.00
2019-01-30T01:10:20.109Z,100.00
2019-01-30T01:12:47.710Z,100.00
2019-01-30T01:15:15.444Z,100.00
2019-01-30T01:17:43.091Z,100.00
2019-01-30T01:20:12.048Z,100.00
2019-01-30T01:22:39.846Z,100.00
2019-01-30T01:25:10.457Z,100.00
2019-01-30T01:27:38.060Z,100.00
2019-01-30T01:30:08.632Z,100.00
2019-01-30T01:32:36.289Z,100.00
2019-01-30T01:35:05.113Z,100.00
2019-01-30T01:37:32.883Z,100.00
2019-01-30T01:40:00.704Z,100.00
2019-01-30T01:42:28.466Z,100.00
2019-01-30T01:44:56.178Z,100.00
2019-01-30T01:47:24.153Z,100.00
2019-01-30T01:49:51.811Z,100.00
2019-01-30T01:52:19.485Z,100.00
2019-01-30T01:54:47.079Z,100.00
2019-01-30T01:57:14.550Z,100.00
2019-01-30T01:59:42.076Z,100.00
2019-01-30T02:02:09.640Z,100.00
2019-01-30T02:04:37.291Z,100.00
2019-01-30T02:07:05.046Z,100.00
2019-01-30T02:09:32.850Z,100.00
2019-01-30T02:12:00.442Z,100.00
2019-01-30T02:14:28.140Z,100.00
2019-01-30T02:16:55.676Z,100.00
2019-01-30T02:19:23.564Z,100.00
2019-01-30T02:21:51.111Z,100.00
2019-01-30T02:24:18.767Z,100.00
2019-01-30T02:26:46.316Z,100.00
2019-01-30T02:29:13.901Z,100.00
2019-01-30T02:31:41.371Z,100.00
2019-01-30T02:34:08.950Z,100.00
2019-01-30T02:36:55.244Z,100.00
2019-01-30T02:39:22.818Z,100.00
2019-01-30T02:41:50.518Z,100.00
2019-01-30T02:44:18.089Z,100.00
2019-01-30T02:46:45.726Z,100.00
2019-01-30T02:49:13.301Z,100.00
2019-01-30T02:51:40.807Z,100.00
2019-01-30T02:54:08.595Z,100.00
2019-01-30T02:56:36.246Z,100.00
2019-01-30T02:59:03.981Z,100.00
2019-01-30T03:01:34.259Z,100.00
2019-01-30T03:04:02.084Z,100.00
2019-01-30T03:06:29.776Z,100.00
2019-01-30T03:08:57.439Z,100.00
2019-01-30T03:11:25.295Z,100.00
2019-01-30T03:13:52.874Z,100.00
2019-01-30T03:16:20.664Z,100.00
2019-01-30T03:18:48.198Z,100.00
2019-01-30T03:21:15.882Z,100.00
2019-01-30T03:23:43.705Z,100.00
2019-01-30T03:26:11.373Z,100.00
2019-01-30T03:28:39.025Z,100.00
2019-01-30T03:31:17.238Z,100.00
2019-01-30T03:33:36.692Z,100.00
2019-01-30T03:36:04.318Z,100.00
2019-01-30T03:38:32.089Z,100.00
2019-01-30T03:40:59.692Z,100.00
2019-01-30T03:43:27.303Z,100.00
2019-01-30T03:45:54.990Z,100.00
2019-01-30T03:48:23.073Z,100.00
2019-01-30T03:50:51.329Z,100.00
2019-01-30T03:53:19.034Z,100.00
2019-01-30T03:55:46.967Z,100.00
2019-01-30T03:58:14.493Z,100.00
2019-01-30T04:00:42.193Z,100.00
2019-01-30T04:03:10.025Z,100.00
2019-01-30T04:05:37.686Z,100.00
2019-01-30T04:08:05.379Z,100.00
2019-01-30T04:10:33.335Z,100.00
2019-01-30T04:13:00.928Z,100.00
2019-01-30T04:15:28.926Z,100.00
2019-01-30T04:17:56.733Z,100.00
2019-01-30T04:20:24.509Z,100.00
2019-01-30T04:22:52.439Z,100.00
2019-01-30T04:25:20.120Z,100.00
2019-01-30T04:27:47.796Z,100.00
2019-01-30T04:30:17.797Z,100.00
2019-01-30T04:32:45.463Z,100.00
2019-01-30T04:35:13.176Z,100.00
2019-01-30T04:37:40.968Z,100.00
2019-01-30T04:40:11.926Z,100.00
2019-01-30T04:42:39.760Z,100.00
2019-01-30T04:45:09.559Z,100.00
2019-01-30T04:47:37.627Z,100.00
2019-01-30T04:50:05.503Z,100.00
2019-01-30T04:52:33.177Z,100.00
2019-01-30T04:55:00.836Z,100.00
2019-01-30T04:57:28.561Z,100.00
2019-01-30T04:59:56.306Z,100.00
2019-01-30T05:02:24.010Z,100.00
2019-01-30T05:04:51.922Z,100.00
2019-01-30T05:07:19.757Z,100.00
2019-01-30T05:09:47.721Z,100.00
2019-01-30T05:12:15.685Z,100.00
2019-01-30T05:14:43.789Z,100.00
2019-01-30T05:17:11.566Z,100.00
2019-01-30T05:19:39.238Z,100.00
2019-01-30T05:22:07.073Z,100.00
2019-01-30T05:24:34.785Z,100.00
2019-01-30T05:27:02.707Z,100.00
2019-01-30T05:29:30.491Z,100.00
2019-01-30T05:32:01.282Z,100.00
2019-01-30T05:34:28.031Z,100.00
2019-01-30T05:36:55.851Z,100.00
2019-01-30T05:39:23.993Z,100.00
2019-01-30T05:41:51.710Z,100.00
2019-01-30T05:44:19.613Z,100.00
2019-01-30T05:46:47.427Z,100.00
2019-01-30T05:49:15.443Z,100.00
2019-01-30T05:51:43.864Z,100.00
2019-01-30T05:54:11.648Z,100.00
2019-01-30T05:56:39.966Z,100.00
2019-01-30T05:59:08.954Z,100.00
2019-01-30T06:01:36.852Z,100.00
2019-01-30T06:04:04.537Z,100.00
2019-01-30T06:06:32.606Z,100.00
2019-01-30T06:09:00.579Z,100.00
2019-01-30T06:11:29.133Z,100.00
2019-01-30T06:13:56.974Z,100.00
2019-01-30T06:16:24.832Z,100.00
2019-01-30T06:18:53.151Z,100.00
2019-01-30T06:21:21.218Z,100.00
2019-01-30T06:23:49.279Z,100.00
2019-01-30T06:26:17.250Z,100.00
2019-01-30T06:28:45.211Z,100.00
2019-01-30T06:31:13.022Z,100.00
2019-01-30T06:33:40.927Z,100.00
2019-01-30T06:36:08.867Z,100.00
2019-01-30T06:38:37.493Z,100.00
2019-01-30T06:41:07.190Z,100.00
2019-01-30T06:43:35.661Z,100.00
2019-01-30T06:46:04.684Z,100.00
2019-01-30T06:48:32.899Z,100.00
2019-01-30T06:51:01.016Z,100.00
2019-01-30T06:53:30.021Z,100.00
2019-01-30T06:55:58.923Z,100.00
2019-01-30T06:58:27.858Z,100.00
2019-01-30T07:00:56.480Z,100.00
2019-01-30T07:03:26.161Z,100.00
2019-01-30T07:05:54.535Z,100.00
2019-01-30T07:08:22.621Z,100.00
2019-01-30T07:10:50.797Z,100.00
2019-01-30T07:13:19.029Z,100.00
2019-01-30T07:15:47.589Z,100.00
2019-01-30T07:18:16.120Z,100.00
2019-01-30T07:20:45.071Z,100.00
2019-01-30T07:23:13.151Z,100.00
2019-01-30T07:25:41.387Z,100.00
2019-01-30T07:28:09.354Z,100.00
2019-01-30T07:30:37.513Z,100.00
2019-01-30T07:33:06.449Z,100.00
2019-01-30T07:35:34.336Z,100.00
2019-01-30T07:38:02.243Z,100.00
2019-01-30T07:40:30.226Z,100.00
2019-01-30T07:42:58.425Z,100.00
2019-01-30T07:45:27.957Z,100.00
2019-01-30T07:48:00.349Z,100.00
2019-01-30T07:50:31.774Z,100.00
2019-01-30T07:53:00.968Z,100.00
2019-01-30T07:55:29.553Z,100.00
2019-01-30T07:57:57.656Z,100.00
2019-01-30T08:00:33.118Z,100.00
2019-01-30T08:03:01.701Z,100.00
2019-01-30T08:05:29.722Z,100.00
2019-01-30T08:07:57.958Z,100.00
2019-01-30T08:10:25.894Z,100.00
2019-01-30T08:12:54.036Z,100.00
2019-01-30T08:15:23.391Z,100.00
2019-01-30T08:17:51.810Z,100.00
2019-01-30T08:20:20.937Z,100.00
2019-01-30T08:22:49.191Z,100.00
2019-01-30T08:25:19.225Z,100.00
2019-01-30T08:27:48.429Z,100.00
2019-01-30T08:30:23.380Z,100.00
2019-01-30T08:32:51.889Z,100.00
2019-01-30T08:35:20.182Z,100.00
2019-01-30T08:37:48.307Z,100.00
2019-01-30T08:40:16.945Z,100.00
2019-01-30T08:42:44.981Z,100.00
2019-01-30T08:45:15.954Z,100.00
2019-01-30T08:47:44.472Z,100.00
2019-01-30T08:50:12.586Z,100.00
2019-01-30T08:52:40.521Z,100.00
2019-01-30T08:55:08.649Z,100.00
2019-01-30T08:57:36.690Z,100.00
2019-01-30T09:00:07.751Z,100.00
2019-01-30T09:02:35.902Z,100.00
2019-01-30T09:05:04.747Z,100.00
2019-01-30T09:07:43.621Z,100.00
2019-01-30T09:10:02.960Z,100.00
2019-01-30T09:12:31.212Z,100.00
2019-01-30T09:15:00.056Z,100.00
2019-01-30T09:17:28.152Z,100.00
2019-01-30T09:19:56.141Z,100.00
2019-01-30T09:22:25.485Z,100.00
2019-01-30T09:24:53.248Z,100.00
2019-01-30T09:27:21.385Z,100.00
2019-01-30T09:29:49.195Z,100.00
2019-01-30T09:32:17.305Z,100.00
2019-01-30T09:34:45.686Z,100.00
2019-01-30T09:37:13.481Z,100.00
2019-01-30T09:39:43.429Z,100.00
2019-01-30T09:42:11.546Z,100.00
2019-01-30T09:44:39.264Z,100.00
2019-01-30T09:47:07.205Z,100.00
2019-01-30T09:49:35.326Z,100.00
2019-01-30T09:52:03.004Z,100.00
2019-01-30T09:54:31.040Z,100.00
2019-01-30T09:56:58.999Z,100.00
2019-01-30T09:59:26.709Z,100.00
2019-01-30T10:01:54.680Z,100.00
2019-01-30T10:04:22.764Z,100.00
2019-01-30T10:06:50.804Z,100.00
2019-01-30T10:09:19.062Z,100.00
2019-01-30T10:11:47.177Z,100.00
2019-01-30T10:14:14.921Z,100.00
2019-01-30T10:16:43.456Z,100.00
2019-01-30T10:19:11.351Z,100.00
2019-01-30T10:21:39.573Z,100.00
2019-01-30T10:24:07.781Z,100.00
2019-01-30T10:26:35.746Z,100.00
2019-01-30T10:29:03.725Z,100.00
2019-01-30T10:31:32.493Z,100.00
2019-01-30T10:34:00.618Z,99.39
2019-01-30T10:36:28.411Z,97.57
2019-01-30T10:38:57.591Z,100.00
2019-01-30T10:41:25.316Z,99.64
2019-01-30T10:43:53.382Z,97.21
2019-01-30T10:46:21.594Z,99.16
2019-01-30T10:48:49.341Z,96.34
2019-01-30T10:51:19.783Z,94.51
2019-01-30T10:53:48.242Z,100.00
2019-01-30T10:56:17.570Z,97.19
2019-01-30T10:58:46.063Z,97.95
2019-01-30T11:01:13.825Z,97.41
2019-01-30T11:03:41.771Z,95.63
2019-01-30T11:06:09.638Z,94.21
2019-01-30T11:08:37.461Z,92.26
2019-01-30T11:11:07.899Z,88.38
2019-01-30T11:13:35.442Z,97.39
2019-01-30T11:16:04.110Z,90.63
2019-01-30T11:18:33.024Z,93.60
2019-01-30T11:21:01.185Z,91.67
2019-01-30T11:23:29.234Z,89.34
2019-01-30T11:25:58.205Z,89.09
2019-01-30T11:28:27.323Z,90.86
2019-01-30T11:30:57.750Z,87.12
2019-01-30T11:33:25.649Z,92.76
2019-01-30T11:35:54.738Z,88.94
2019-01-30T11:38:22.486Z,92.06
2019-01-30T11:40:51.029Z,88.63
2019-01-30T11:43:18.839Z,91.68
2019-01-30T11:45:46.674Z,87.55
2019-01-30T11:48:14.791Z,87.93
2019-01-30T11:50:42.784Z,92.85
2019-01-30T11:53:10.953Z,92.68
2019-01-30T11:55:39.076Z,90.94
2019-01-30T11:58:06.960Z,91.53
2019-01-30T12:00:38.536Z,92.60
2019-01-30T12:03:06.636Z,89.15
2019-01-30T12:05:35.244Z,90.81
2019-01-30T12:08:03.542Z,93.39
2019-01-30T12:10:31.573Z,94.54
2019-01-30T12:12:59.433Z,89.25
2019-01-30T12:15:28.535Z,94.94
2019-01-30T12:17:56.780Z,94.62
2019-01-30T12:20:24.516Z,95.59
2019-01-30T12:22:53.987Z,89.68
2019-01-30T12:25:22.239Z,92.49
2019-01-30T12:27:50.973Z,92.28
2019-01-30T12:30:21.114Z,93.48
2019-01-30T12:32:49.151Z,98.19
2019-01-30T12:35:21.679Z,91.85
2019-01-30T12:37:49.811Z,91.54
2019-01-30T12:40:18.368Z,92.26
2019-01-30T12:42:46.494Z,93.10
2019-01-30T12:45:39.274Z,92.95
2019-01-30T12:48:10.767Z,92.91
2019-01-30T12:50:39.185Z,91.50
2019-01-30T12:53:07.852Z,90.90
2019-01-30T12:55:35.605Z,95.74
2019-01-30T12:58:04.262Z,90.92
2019-01-30T13:00:38.807Z,93.64
2019-01-30T13:03:09.113Z,92.75
2019-01-30T13:05:37.153Z,96.72
2019-01-30T13:08:05.497Z,93.64
2019-01-30T13:10:33.514Z,95.48
2019-01-30T13:13:02.218Z,95.35
2019-01-30T13:15:30.240Z,97.91
2019-01-30T13:17:59.291Z,99.96
2019-01-30T13:20:27.404Z,100.00
2019-01-30T13:22:55.798Z,100.00
2019-01-30T13:25:26.432Z,100.00
2019-01-30T13:27:54.213Z,100.00
2019-01-30T13:30:24.881Z,100.00
2019-01-30T13:32:52.750Z,100.00
2019-01-30T13:35:20.565Z,100.00
2019-01-30T13:37:48.616Z,100.00
2019-01-30T13:40:22.185Z,100.00
2019-01-30T13:42:49.940Z,100.00
2019-01-30T13:45:17.806Z,100.00
2019-01-30T13:47:45.814Z,100.00
2019-01-30T13:50:16.466Z,100.00
2019-01-30T13:52:44.339Z,100.00
2019-01-30T13:55:12.412Z,100.00
2019-01-30T13:57:40.513Z,100.00
2019-01-30T14:00:21.654Z,100.00
2019-01-30T14:02:51.748Z,100.00
2019-01-30T14:05:19.676Z,100.00
2019-01-30T14:07:48.730Z,100.00
2019-01-30T14:10:20.440Z,100.00
2019-01-30T14:12:49.583Z,100.00
2019-01-30T14:15:20.758Z,100.00
2019-01-30T14:17:48.738Z,100.00
2019-01-30T14:20:16.908Z,100.00
2019-01-30T14:22:46.116Z,100.00
2019-01-30T14:25:14.379Z,100.00
2019-01-30T14:27:42.448Z,100.00
2019-01-30T14:30:16.958Z,100.00
2019-01-30T14:32:45.820Z,100.00
2019-01-30T14:35:13.928Z,100.00
2019-01-30T14:37:42.026Z,100.00
2019-01-30T14:40:10.686Z,100.00
2019-01-30T14:42:38.651Z,100.00
2019-01-30T14:45:08.747Z,100.00
2019-01-30T14:47:36.788Z,100.00
2019-01-30T14:50:06.251Z,100.00
2019-01-30T14:52:34.429Z,100.00
2019-01-30T14:55:02.355Z,100.00
2019-01-30T14:57:30.247Z,100.00
2019-01-30T14:59:58.243Z,100.00
2019-01-30T15:02:26.128Z,100.00
2019-01-30T15:04:53.970Z,100.00
2019-01-30T15:07:28.854Z,100.00
2019-01-30T15:09:51.572Z,100.00
2019-01-30T15:12:19.569Z,100.00
2019-01-30T15:14:47.286Z,100.00
2019-01-30T15:17:15.025Z,100.00
2019-01-30T15:19:42.634Z,100.00
2019-01-30T15:22:10.258Z,100.00
2019-01-30T15:24:37.943Z,100.00
2019-01-30T15:27:05.718Z,100.00
2019-01-30T15:29:33.886Z,100.00
2019-01-30T15:32:01.529Z,100.00
2019-01-30T15:34:29.274Z,100.00
2019-01-30T15:36:57.052Z,100.00
2019-01-30T15:39:24.701Z,100.00
2019-01-30T15:41:52.394Z,100.00
2019-01-30T15:44:20.232Z,100.00
2019-01-30T15:46:47.977Z,100.00
2019-01-30T15:49:15.819Z,100.00
2019-01-30T15:51:43.462Z,100.00
2019-01-30T15:54:11.164Z,100.00
2019-01-30T15:56:38.763Z,100.00
2019-01-30T15:59:09.047Z,100.00
2019-01-30T16:01:40.102Z,100.00
2019-01-30T16:04:10.482Z,100.00
2019-01-30T16:06:39.097Z,100.00
2019-01-30T16:09:09.408Z,100.00
2019-01-30T16:11:37.000Z,100.00
2019-01-30T16:14:05.098Z,100.00
2019-01-30T16:16:32.843Z,100.00
2019-01-30T16:19:00.616Z,100.00
2019-01-30T16:21:28.319Z,100.00
2019-01-30T16:23:56.172Z,100.00
2019-01-30T16:26:23.969Z,100.00
2019-01-30T16:28:51.771Z,100.00
2019-01-30T16:31:19.743Z,100.00
2019-01-30T16:33:47.680Z,100.00
2019-01-30T16:36:15.526Z,100.00
2019-01-30T16:38:44.150Z,100.00
2019-01-30T16:41:15.319Z,100.00
2019-01-30T16:43:43.914Z,100.00
2019-01-30T16:46:13.025Z,100.00
2019-01-30T16:48:42.009Z,100.00
2019-01-30T16:51:09.948Z,100.00
2019-01-30T16:53:38.722Z,100.00
2019-01-30T16:56:06.946Z,100.00
2019-01-30T16:58:34.915Z,100.00
2019-01-30T17:01:03.139Z,100.00
2019-01-30T17:03:30.922Z,100.00
2019-01-30T17:06:07.024Z,100.00
2019-01-30T17:08:28.515Z,100.00
2019-01-30T17:10:56.214Z,100.00
2019-01-30T17:13:23.905Z,100.00
2019-01-30T17:15:52.175Z,100.00
2019-01-30T17:18:19.914Z,100.00
2019-01-30T17:20:47.838Z,100.00
2019-01-30T17:23:16.278Z,100.00
2019-01-30T17:25:44.498Z,100.00
2019-01-30T17:28:12.958Z,100.00
2019-01-30T17:31:00.034Z,100.00
2019-01-30T17:33:27.948Z,100.00
2019-01-30T17:35:55.499Z,100.00
2019-01-30T17:38:25.231Z,100.00
2019-01-30T17:40:53.410Z,100.00
2019-01-30T17:43:21.217Z,100.00
2019-01-30T17:45:49.022Z,100.00
2019-01-30T17:48:19.169Z,100.00
2019-01-30T17:50:46.863Z,100.00
2019-01-30T17:53:16.741Z,100.00
2019-01-30T17:55:44.669Z,100.00
2019-01-30T17:58:12.578Z,100.00
2019-01-30T18:00:59.990Z,100.00
2019-01-30T18:03:27.903Z,100.00
2019-01-30T18:05:55.660Z,100.00
2019-01-30T18:08:23.886Z,100.00
2019-01-30T18:10:51.805Z,100.00
2019-01-30T18:13:20.028Z,100.00
2019-01-30T18:15:48.065Z,100.00
2019-01-30T18:18:15.869Z,100.00
2019-01-30T18:20:43.589Z,100.00
2019-01-30T18:23:11.482Z,100.00
2019-01-30T18:25:39.427Z,100.00
2019-01-30T18:28:07.084Z,100.00
2019-01-30T18:30:34.799Z,100.00
2019-01-30T18:33:02.768Z,100.00
2019-01-30T18:35:30.491Z,100.00
2019-01-30T18:37:58.228Z,100.00
2019-01-30T18:40:26.141Z,100.00
2019-01-30T18:42:54.036Z,100.00
2019-01-30T18:45:23.711Z,100.00
2019-01-30T18:47:51.373Z,100.00
2019-01-30T18:50:21.434Z,100.00
2019-01-30T18:52:49.305Z,100.00
2019-01-30T18:55:17.885Z,100.00
2019-01-30T18:57:45.748Z,100.00
2019-01-30T19:00:17.350Z,100.00
2019-01-30T19:02:45.232Z,100.00
2019-01-30T19:05:13.267Z,100.00
2019-01-30T19:07:41.029Z,100.00
2019-01-30T19:10:10.979Z,100.00
2019-01-30T19:12:38.969Z,100.00
2019-01-30T19:15:10.238Z,100.00
2019-01-30T19:17:38.684Z,100.00
2019-01-30T19:20:09.699Z,100.00
2019-01-30T19:22:37.548Z,100.00
2019-01-30T19:25:05.756Z,100.00
2019-01-30T19:27:33.933Z,100.00
2019-01-30T19:30:04.395Z,100.00
2019-01-30T19:32:31.908Z,100.00
2019-01-30T19:34:59.700Z,100.00
2019-01-30T19:37:27.646Z,100.00
2019-01-30T19:39:55.607Z,100.00
2019-01-30T19:42:23.615Z,100.00
2019-01-30T19:44:51.553Z,100.00
2019-01-30T19:47:19.550Z,100.00
2019-01-30T19:49:47.759Z,100.00
2019-01-30T19:52:15.656Z,100.00
2019-01-30T19:54:43.427Z,100.00
2019-01-30T19:57:11.136Z,100.00
2019-01-30T19:59:39.470Z,100.00
2019-01-30T20:02:08.192Z,100.00
2019-01-30T20:04:35.927Z,100.00
2019-01-30T20:07:14.255Z,100.00
2019-01-30T20:09:34.292Z,100.00
2019-01-30T20:12:02.392Z,100.00
2019-01-30T20:14:30.085Z,100.00
2019-01-30T20:16:58.110Z,100.00
2019-01-30T20:19:26.176Z,100.00
2019-01-30T20:21:53.930Z,100.00
2019-01-30T20:24:21.746Z,100.00
2019-01-30T20:26:49.649Z,100.00
2019-01-30T20:29:17.663Z,100.00
2019-01-30T20:31:45.271Z,100.00
2019-01-30T20:34:12.877Z,100.00
2019-01-30T20:36:40.656Z,100.00
2019-01-30T20:39:08.647Z,100.00
2019-01-30T20:41:36.331Z,100.00
2019-01-30T20:44:04.279Z,100.00
2019-01-30T20:46:32.000Z,100.00
2019-01-30T20:48:59.757Z,100.00
2019-01-30T20:51:27.578Z,100.00
2019-01-30T20:53:55.291Z,100.00
2019-01-30T20:56:23.007Z,100.00
2019-01-30T20:58:50.838Z,100.00
2019-01-30T21:01:18.529Z,100.00
2019-01-30T21:03:46.399Z,100.00
2019-01-30T21:06:14.234Z,100.00
2019-01-30T21:08:41.943Z,100.00
2019-01-30T21:11:09.723Z,100.00
2019-01-30T21:13:37.672Z,100.00
2019-01-30T21:16:05.310Z,100.00
2019-01-30T21:18:33.471Z,100.00
2019-01-30T21:21:01.238Z,100.00
2019-01-30T21:23:29.055Z,100.00
2019-01-30T21:25:56.781Z,100.00
2019-01-30T21:28:24.593Z,100.00
2019-01-30T21:30:52.621Z,100.00
2019-01-30T21:33:20.628Z,100.00
2019-01-30T21:35:48.558Z,100.00
2019-01-30T21:38:16.302Z,100.00
2019-01-30T21:40:43.978Z,100.00
2019-01-30T21:43:11.834Z,100.00
2019-01-30T21:45:39.588Z,100.00
2019-01-30T21:48:07.520Z,100.00
2019-01-30T21:50:35.326Z,100.00
2019-01-30T21:53:03.096Z,100.00
2019-01-30T21:55:31.076Z,100.00
2019-01-30T21:57:58.813Z,100.00
2019-01-30T22:00:27.852Z,100.00
2019-01-30T22:02:56.591Z,100.00
2019-01-30T22:05:24.477Z,100.00
2019-01-30T22:08:00.646Z,100.00
2019-01-30T22:10:24.533Z,100.00
2019-01-30T22:12:52.666Z,100.00
2019-01-30T22:15:20.419Z,100.00
2019-01-30T22:17:48.173Z,100.00
2019-01-30T22:20:18.323Z,100.00
2019-01-30T22:22:46.037Z,100.00
2019-01-30T22:25:20.522Z,100.00
2019-01-30T22:27:45.565Z,100.00
2019-01-30T22:30:18.886Z,100.00
2019-01-30T22:32:46.640Z,100.00
2019-01-30T22:35:14.527Z,100.00
2019-01-30T22:37:42.655Z,100.00
2019-01-30T22:40:11.161Z,100.00
2019-01-30T22:42:39.079Z,100.00
2019-01-30T22:45:08.109Z,100.00
2019-01-30T22:47:35.823Z,100.00
2019-01-30T22:50:04.914Z,100.00
2019-01-30T22:52:32.737Z,100.00
2019-01-30T22:55:00.422Z,100.00
2019-01-30T22:57:28.028Z,100.00
2019-01-30T22:59:55.822Z,100.00
2019-01-30T23:02:23.956Z,100.00
2019-01-30T23:05:12.843Z,100.00
2019-01-30T23:08:30.810Z,100.00
2019-01-30T23:11:18.722Z,100.00
2019-01-30T23:13:56.348Z,100.00
2019-01-30T23:17:17.850Z,100.00
2019-01-30T23:20:14.010Z,100.00
2019-01-30T23:22:58.529Z,100.00
2019-01-30T23:25:53.478Z,100.00
2019-01-30T23:28:39.729Z,100.00
2019-01-30T23:31:58.527Z,100.00
2019-01-30T23:35:06.810Z,100.00
2019-01-30T23:38:03.588Z,100.00
2019-01-30T23:41:03.588Z,100.00
2019-01-30T23:43:48.677Z,100.00
2019-01-30T23:47:07.289Z,100.00
2019-01-30T23:50:02.205Z,100.00
2019-01-30T23:53:13.746Z,100.00
2019-01-30T23:56:11.936Z,100.00
2019-01-30T23:58:49.648Z,100.00
